sensor_id;sensor_type;location;lat;lon;timestamp;P1;durP1;ratioP1;P2;durP2;ratioP2
35522;SDS011;61478;50.820;4.330;2023-02-22T00:01:01;47.70;;;30.85;;
35522;SDS011;61478;50.820;4.330;2023-02-22T00:03:32;46.90;;;30.98;;
35522;SDS011;61478;50.820;4.330;2023-02-22T00:05:59;46.08;;;29.30;;
35522;SDS011;61478;50.820;4.330;2023-02-22T00:08:29;55.33;;;32.15;;
35522;SDS011;61478;50.820;4.330;2023-02-22T00:11:02;52.08;;;30.48;;
35522;SDS011;61478;50.820;4.330;2023-02-22T00:13:32;59.05;;;30.42;;
35522;SDS011;61478;50.820;4.330;2023-02-22T00:15:59;51.20;;;30.98;;
35522;SDS011;61478;50.820;4.330;2023-02-22T00:18:25;48.20;;;29.73;;
35522;SDS011;61478;50.820;4.330;2023-02-22T00:20:53;53.45;;;30.15;;
35522;SDS011;61478;50.820;4.330;2023-02-22T00:23:25;54.20;;;30.70;;
35522;SDS011;61478;50.820;4.330;2023-02-22T00:25:56;51.30;;;29.48;;
35522;SDS011;61478;50.820;4.330;2023-02-22T00:28:23;51.15;;;29.20;;
35522;SDS011;61478;50.820;4.330;2023-02-22T00:30:49;53.22;;;31.38;;
35522;SDS011;61478;50.820;4.330;2023-02-22T00:33:16;52.17;;;32.00;;
35522;SDS011;61478;50.820;4.330;2023-02-22T00:35:43;57.00;;;31.48;;
35522;SDS011;61478;50.820;4.330;2023-02-22T00:38:15;54.85;;;31.27;;
35522;SDS011;61478;50.820;4.330;2023-02-22T00:40:43;56.60;;;34.35;;
35522;SDS011;61478;50.820;4.330;2023-02-22T00:43:09;58.53;;;31.10;;
35522;SDS011;61478;50.820;4.330;2023-02-22T00:45:35;51.67;;;28.73;;
35522;SDS011;61478;50.820;4.330;2023-02-22T00:48:02;53.13;;;29.08;;
35522;SDS011;61478;50.820;4.330;2023-02-22T00:50:29;50.58;;;29.05;;
35522;SDS011;61478;50.820;4.330;2023-02-22T00:52:56;48.28;;;29.35;;
35522;SDS011;61478;50.820;4.330;2023-02-22T00:55:26;51.22;;;28.77;;
35522;SDS011;61478;50.820;4.330;2023-02-22T00:57:53;54.08;;;31.50;;
35522;SDS011;61478;50.820;4.330;2023-02-22T01:00:24;50.33;;;29.02;;
35522;SDS011;61478;50.820;4.330;2023-02-22T01:02:51;48.22;;;28.60;;
35522;SDS011;61478;50.820;4.330;2023-02-22T01:05:20;42.65;;;28.00;;
35522;SDS011;61478;50.820;4.330;2023-02-22T01:07:48;40.60;;;27.73;;
35522;SDS011;61478;50.820;4.330;2023-02-22T01:10:16;44.55;;;28.80;;
35522;SDS011;61478;50.820;4.330;2023-02-22T01:12:43;42.78;;;27.95;;
35522;SDS011;61478;50.820;4.330;2023-02-22T01:15:10;41.88;;;26.55;;
35522;SDS011;61478;50.820;4.330;2023-02-22T01:17:37;36.63;;;24.45;;
35522;SDS011;61478;50.820;4.330;2023-02-22T01:20:04;45.22;;;28.50;;
35522;SDS011;61478;50.820;4.330;2023-02-22T01:22:34;46.33;;;29.50;;
35522;SDS011;61478;50.820;4.330;2023-02-22T01:25:01;39.50;;;27.33;;
35522;SDS011;61478;50.820;4.330;2023-02-22T01:27:28;41.63;;;27.67;;
35522;SDS011;61478;50.820;4.330;2023-02-22T01:29:54;42.15;;;28.77;;
35522;SDS011;61478;50.820;4.330;2023-02-22T01:32:19;44.92;;;28.92;;
35522;SDS011;61478;50.820;4.330;2023-02-22T01:34:45;44.00;;;31.27;;
35522;SDS011;61478;50.820;4.330;2023-02-22T01:37:11;47.70;;;30.73;;
35522;SDS011;61478;50.820;4.330;2023-02-22T01:39:37;43.05;;;27.58;;
35522;SDS011;61478;50.820;4.330;2023-02-22T01:42:03;41.03;;;27.83;;
35522;SDS011;61478;50.820;4.330;2023-02-22T01:44:36;38.28;;;26.38;;
35522;SDS011;61478;50.820;4.330;2023-02-22T01:47:05;37.85;;;26.30;;
35522;SDS011;61478;50.820;4.330;2023-02-22T01:49:51;37.95;;;25.33;;
35522;SDS011;61478;50.820;4.330;2023-02-22T01:52:18;41.42;;;27.27;;
35522;SDS011;61478;50.820;4.330;2023-02-22T01:54:49;43.50;;;28.88;;
35522;SDS011;61478;50.820;4.330;2023-02-22T01:57:25;39.28;;;27.20;;
35522;SDS011;61478;50.820;4.330;2023-02-22T01:59:57;39.13;;;26.53;;
35522;SDS011;61478;50.820;4.330;2023-02-22T02:02:34;36.58;;;25.58;;
35522;SDS011;61478;50.820;4.330;2023-02-22T02:05:01;37.45;;;26.10;;
35522;SDS011;61478;50.820;4.330;2023-02-22T02:07:32;36.63;;;25.83;;
35522;SDS011;61478;50.820;4.330;2023-02-22T02:10:04;38.17;;;26.38;;
35522;SDS011;61478;50.820;4.330;2023-02-22T02:12:38;39.05;;;28.10;;
35522;SDS011;61478;50.820;4.330;2023-02-22T02:17:51;34.58;;;25.38;;
35522;SDS011;61478;50.820;4.330;2023-02-22T02:20:22;32.67;;;24.25;;
35522;SDS011;61478;50.820;4.330;2023-02-22T02:22:55;33.97;;;24.75;;
35522;SDS011;61478;50.820;4.330;2023-02-22T02:25:43;43.28;;;27.75;;
35522;SDS011;61478;50.820;4.330;2023-02-22T02:28:41;34.78;;;24.55;;
35522;SDS011;61478;50.820;4.330;2023-02-22T02:42:01;28.55;;;22.67;;
35522;SDS011;61478;50.820;4.330;2023-02-22T02:44:39;30.70;;;22.40;;
35522;SDS011;61478;50.820;4.330;2023-02-22T02:47:18;27.38;;;21.45;;
35522;SDS011;61478;50.820;4.330;2023-02-22T02:52:35;27.35;;;22.42;;
35522;SDS011;61478;50.820;4.330;2023-02-22T02:55:04;34.55;;;22.02;;
35522;SDS011;61478;50.820;4.330;2023-02-22T02:57:32;30.55;;;21.70;;
35522;SDS011;61478;50.820;4.330;2023-02-22T02:59:58;26.45;;;21.48;;
35522;SDS011;61478;50.820;4.330;2023-02-22T03:13:18;29.40;;;21.80;;
35522;SDS011;61478;50.820;4.330;2023-02-22T03:15:49;29.27;;;21.70;;
35522;SDS011;61478;50.820;4.330;2023-02-22T03:24:18;23.88;;;18.85;;
35522;SDS011;61478;50.820;4.330;2023-02-22T03:27:03;24.40;;;19.52;;
35522;SDS011;61478;50.820;4.330;2023-02-22T03:29:37;21.83;;;18.58;;
35522;SDS011;61478;50.820;4.330;2023-02-22T03:32:08;24.52;;;17.58;;
35522;SDS011;61478;50.820;4.330;2023-02-22T03:34:44;23.17;;;19.15;;
35522;SDS011;61478;50.820;4.330;2023-02-22T03:37:18;28.45;;;19.13;;
35522;SDS011;61478;50.820;4.330;2023-02-22T03:39:48;24.48;;;19.23;;
35522;SDS011;61478;50.820;4.330;2023-02-22T03:42:18;25.27;;;19.10;;
35522;SDS011;61478;50.820;4.330;2023-02-22T03:44:48;27.65;;;19.17;;
35522;SDS011;61478;50.820;4.330;2023-02-22T03:47:17;26.08;;;19.00;;
35522;SDS011;61478;50.820;4.330;2023-02-22T03:49:56;25.10;;;17.58;;
35522;SDS011;61478;50.820;4.330;2023-02-22T03:52:34;21.88;;;17.77;;
35522;SDS011;61478;50.820;4.330;2023-02-22T03:55:01;23.23;;;18.17;;
35522;SDS011;61478;50.820;4.330;2023-02-22T03:57:28;26.17;;;17.55;;
35522;SDS011;61478;50.820;4.330;2023-02-22T03:59:58;21.52;;;17.85;;
35522;SDS011;61478;50.820;4.330;2023-02-22T04:02:24;25.38;;;17.98;;
35522;SDS011;61478;50.820;4.330;2023-02-22T04:04:59;25.80;;;20.48;;
35522;SDS011;61478;50.820;4.330;2023-02-22T04:07:25;25.13;;;19.95;;
35522;SDS011;61478;50.820;4.330;2023-02-22T04:09:51;23.73;;;19.65;;
35522;SDS011;61478;50.820;4.330;2023-02-22T04:12:17;25.73;;;20.75;;
35522;SDS011;61478;50.820;4.330;2023-02-22T04:14:43;28.83;;;18.35;;
35522;SDS011;61478;50.820;4.330;2023-02-22T04:17:09;29.50;;;20.27;;
35522;SDS011;61478;50.820;4.330;2023-02-22T04:19:34;23.42;;;17.77;;
35522;SDS011;61478;50.820;4.330;2023-02-22T04:22:00;26.40;;;21.17;;
35522;SDS011;61478;50.820;4.330;2023-02-22T04:24:26;33.58;;;21.02;;
35522;SDS011;61478;50.820;4.330;2023-02-22T04:26:52;28.88;;;20.60;;
35522;SDS011;61478;50.820;4.330;2023-02-22T04:29:19;24.25;;;19.10;;
35522;SDS011;61478;50.820;4.330;2023-02-22T04:31:45;29.38;;;20.75;;
35522;SDS011;61478;50.820;4.330;2023-02-22T04:34:11;30.50;;;21.45;;
35522;SDS011;61478;50.820;4.330;2023-02-22T04:36:37;29.70;;;19.95;;
35522;SDS011;61478;50.820;4.330;2023-02-22T04:39:06;25.02;;;21.00;;
35522;SDS011;61478;50.820;4.330;2023-02-22T04:41:32;29.65;;;21.55;;
35522;SDS011;61478;50.820;4.330;2023-02-22T04:43:58;22.65;;;20.17;;
35522;SDS011;61478;50.820;4.330;2023-02-22T04:46:24;26.15;;;19.23;;
35522;SDS011;61478;50.820;4.330;2023-02-22T04:48:50;25.00;;;19.75;;
35522;SDS011;61478;50.820;4.330;2023-02-22T04:51:16;26.05;;;19.42;;
35522;SDS011;61478;50.820;4.330;2023-02-22T04:53:44;21.92;;;18.05;;
35522;SDS011;61478;50.820;4.330;2023-02-22T04:56:10;26.75;;;19.65;;
35522;SDS011;61478;50.820;4.330;2023-02-22T04:58:36;27.10;;;18.85;;
35522;SDS011;61478;50.820;4.330;2023-02-22T05:01:02;23.50;;;18.77;;
35522;SDS011;61478;50.820;4.330;2023-02-22T05:03:28;23.88;;;17.13;;
35522;SDS011;61478;50.820;4.330;2023-02-22T05:05:54;22.73;;;17.38;;
35522;SDS011;61478;50.820;4.330;2023-02-22T05:08:19;20.70;;;16.55;;
35522;SDS011;61478;50.820;4.330;2023-02-22T05:10:45;19.65;;;15.88;;
35522;SDS011;61478;50.820;4.330;2023-02-22T05:13:11;22.75;;;15.50;;
35522;SDS011;61478;50.820;4.330;2023-02-22T05:15:37;18.65;;;15.07;;
35522;SDS011;61478;50.820;4.330;2023-02-22T05:18:03;20.80;;;14.63;;
35522;SDS011;61478;50.820;4.330;2023-02-22T05:20:30;24.77;;;18.85;;
35522;SDS011;61478;50.820;4.330;2023-02-22T05:22:58;18.88;;;15.02;;
35522;SDS011;61478;50.820;4.330;2023-02-22T05:25:25;25.65;;;16.38;;
35522;SDS011;61478;50.820;4.330;2023-02-22T05:28:02;23.95;;;16.52;;
35522;SDS011;61478;50.820;4.330;2023-02-22T05:30:32;23.63;;;16.48;;
35522;SDS011;61478;50.820;4.330;2023-02-22T05:33:00;21.38;;;16.60;;
35522;SDS011;61478;50.820;4.330;2023-02-22T05:35:26;19.83;;;15.68;;
35522;SDS011;61478;50.820;4.330;2023-02-22T05:37:53;29.20;;;17.38;;
35522;SDS011;61478;50.820;4.330;2023-02-22T05:40:21;26.33;;;16.63;;
35522;SDS011;61478;50.820;4.330;2023-02-22T05:42:49;20.45;;;15.80;;
35522;SDS011;61478;50.820;4.330;2023-02-22T05:45:16;19.40;;;15.52;;
35522;SDS011;61478;50.820;4.330;2023-02-22T05:47:43;25.63;;;16.83;;
35522;SDS011;61478;50.820;4.330;2023-02-22T05:50:10;16.92;;;14.35;;
35522;SDS011;61478;50.820;4.330;2023-02-22T05:52:36;19.92;;;16.10;;
35522;SDS011;61478;50.820;4.330;2023-02-22T05:55:06;18.88;;;14.88;;
35522;SDS011;61478;50.820;4.330;2023-02-22T05:57:33;15.88;;;14.02;;
35522;SDS011;61478;50.820;4.330;2023-02-22T05:59:59;19.05;;;15.38;;
35522;SDS011;61478;50.820;4.330;2023-02-22T06:02:26;20.13;;;14.52;;
35522;SDS011;61478;50.820;4.330;2023-02-22T06:04:52;17.55;;;14.82;;
35522;SDS011;61478;50.820;4.330;2023-02-22T06:07:17;17.70;;;14.20;;
35522;SDS011;61478;50.820;4.330;2023-02-22T06:09:43;18.63;;;15.27;;
35522;SDS011;61478;50.820;4.330;2023-02-22T06:12:09;25.17;;;15.15;;
35522;SDS011;61478;50.820;4.330;2023-02-22T06:14:35;18.48;;;14.73;;
35522;SDS011;61478;50.820;4.330;2023-02-22T06:17:01;17.17;;;14.48;;
35522;SDS011;61478;50.820;4.330;2023-02-22T06:19:29;17.38;;;14.88;;
35522;SDS011;61478;50.820;4.330;2023-02-22T06:21:55;18.73;;;14.38;;
35522;SDS011;61478;50.820;4.330;2023-02-22T06:24:24;19.70;;;13.82;;
35522;SDS011;61478;50.820;4.330;2023-02-22T06:26:54;20.13;;;14.85;;
35522;SDS011;61478;50.820;4.330;2023-02-22T06:29:21;19.73;;;14.57;;
35522;SDS011;61478;50.820;4.330;2023-02-22T06:31:48;18.23;;;13.45;;
35522;SDS011;61478;50.820;4.330;2023-02-22T06:34:14;21.50;;;12.38;;
35522;SDS011;61478;50.820;4.330;2023-02-22T06:36:41;15.93;;;12.65;;
35522;SDS011;61478;50.820;4.330;2023-02-22T06:39:07;23.10;;;13.05;;
35522;SDS011;61478;50.820;4.330;2023-02-22T06:41:36;17.65;;;15.00;;
35522;SDS011;61478;50.820;4.330;2023-02-22T06:44:03;22.42;;;14.52;;
35522;SDS011;61478;50.820;4.330;2023-02-22T06:46:29;21.70;;;14.43;;
35522;SDS011;61478;50.820;4.330;2023-02-22T06:48:55;22.05;;;17.67;;
35522;SDS011;61478;50.820;4.330;2023-02-22T06:51:24;20.38;;;15.27;;
35522;SDS011;61478;50.820;4.330;2023-02-22T06:53:51;25.30;;;16.85;;
35522;SDS011;61478;50.820;4.330;2023-02-22T06:56:17;21.25;;;15.18;;
35522;SDS011;61478;50.820;4.330;2023-02-22T06:58:43;23.73;;;16.83;;
35522;SDS011;61478;50.820;4.330;2023-02-22T07:01:09;25.27;;;16.20;;
35522;SDS011;61478;50.820;4.330;2023-02-22T07:03:36;30.65;;;17.17;;
35522;SDS011;61478;50.820;4.330;2023-02-22T07:06:02;21.52;;;14.95;;
35522;SDS011;61478;50.820;4.330;2023-02-22T07:08:28;22.70;;;14.13;;
35522;SDS011;61478;50.820;4.330;2023-02-22T07:10:54;21.30;;;14.75;;
35522;SDS011;61478;50.820;4.330;2023-02-22T07:13:20;23.52;;;13.38;;
35522;SDS011;61478;50.820;4.330;2023-02-22T07:15:46;22.15;;;13.95;;
35522;SDS011;61478;50.820;4.330;2023-02-22T07:18:12;23.63;;;14.63;;
35522;SDS011;61478;50.820;4.330;2023-02-22T07:20:38;23.17;;;16.25;;
35522;SDS011;61478;50.820;4.330;2023-02-22T07:23:04;27.55;;;14.95;;
35522;SDS011;61478;50.820;4.330;2023-02-22T07:25:30;32.72;;;15.15;;
35522;SDS011;61478;50.820;4.330;2023-02-22T07:27:56;32.60;;;15.00;;
35522;SDS011;61478;50.820;4.330;2023-02-22T07:30:23;27.63;;;15.32;;
35522;SDS011;61478;50.820;4.330;2023-02-22T07:32:54;28.13;;;14.82;;
35522;SDS011;61478;50.820;4.330;2023-02-22T07:35:28;22.83;;;14.75;;
35522;SDS011;61478;50.820;4.330;2023-02-22T07:40:22;27.00;;;14.80;;
35522;SDS011;61478;50.820;4.330;2023-02-22T07:42:50;20.52;;;14.38;;
35522;SDS011;61478;50.820;4.330;2023-02-22T07:45:22;31.63;;;15.45;;
35522;SDS011;61478;50.820;4.330;2023-02-22T07:47:50;24.17;;;14.48;;
35522;SDS011;61478;50.820;4.330;2023-02-22T07:50:16;22.15;;;13.43;;
35522;SDS011;61478;50.820;4.330;2023-02-22T07:52:48;22.50;;;14.48;;
35522;SDS011;61478;50.820;4.330;2023-02-22T07:55:16;25.15;;;13.90;;
35522;SDS011;61478;50.820;4.330;2023-02-22T07:57:47;19.15;;;13.93;;
35522;SDS011;61478;50.820;4.330;2023-02-22T08:00:16;20.13;;;14.98;;
35522;SDS011;61478;50.820;4.330;2023-02-22T08:02:50;29.00;;;15.55;;
35522;SDS011;61478;50.820;4.330;2023-02-22T08:05:17;23.02;;;13.35;;
35522;SDS011;61478;50.820;4.330;2023-02-22T08:07:44;21.10;;;14.23;;
35522;SDS011;61478;50.820;4.330;2023-02-22T08:10:10;22.27;;;15.07;;
35522;SDS011;61478;50.820;4.330;2023-02-22T08:12:38;26.20;;;14.15;;
35522;SDS011;61478;50.820;4.330;2023-02-22T08:15:06;23.10;;;15.25;;
35522;SDS011;61478;50.820;4.330;2023-02-22T08:17:33;24.88;;;13.80;;
35522;SDS011;61478;50.820;4.330;2023-02-22T08:19:59;20.50;;;14.07;;
35522;SDS011;61478;50.820;4.330;2023-02-22T08:22:27;25.08;;;14.57;;
35522;SDS011;61478;50.820;4.330;2023-02-22T08:24:53;22.55;;;14.05;;
35522;SDS011;61478;50.820;4.330;2023-02-22T08:27:23;24.17;;;14.07;;
35522;SDS011;61478;50.820;4.330;2023-02-22T08:29:50;22.30;;;13.73;;
35522;SDS011;61478;50.820;4.330;2023-02-22T08:32:17;27.17;;;13.88;;
35522;SDS011;61478;50.820;4.330;2023-02-22T08:34:43;22.88;;;12.80;;
35522;SDS011;61478;50.820;4.330;2023-02-22T08:37:09;26.10;;;14.45;;
35522;SDS011;61478;50.820;4.330;2023-02-22T08:39:35;21.25;;;14.10;;
35522;SDS011;61478;50.820;4.330;2023-02-22T08:42:01;24.25;;;14.02;;
35522;SDS011;61478;50.820;4.330;2023-02-22T08:44:27;24.60;;;14.75;;
35522;SDS011;61478;50.820;4.330;2023-02-22T08:46:53;22.95;;;13.77;;
35522;SDS011;61478;50.820;4.330;2023-02-22T08:49:19;30.30;;;13.82;;
35522;SDS011;61478;50.820;4.330;2023-02-22T08:51:45;31.27;;;14.13;;
35522;SDS011;61478;50.820;4.330;2023-02-22T08:54:12;28.25;;;13.55;;
35522;SDS011;61478;50.820;4.330;2023-02-22T08:56:38;19.13;;;13.07;;
35522;SDS011;61478;50.820;4.330;2023-02-22T08:59:04;21.13;;;13.20;;
35522;SDS011;61478;50.820;4.330;2023-02-22T09:01:30;20.65;;;14.23;;
35522;SDS011;61478;50.820;4.330;2023-02-22T09:03:56;24.20;;;14.77;;
35522;SDS011;61478;50.820;4.330;2023-02-22T09:06:23;27.52;;;15.93;;
35522;SDS011;61478;50.820;4.330;2023-02-22T09:08:49;22.40;;;14.85;;
35522;SDS011;61478;50.820;4.330;2023-02-22T09:11:15;22.42;;;15.52;;
35522;SDS011;61478;50.820;4.330;2023-02-22T09:13:41;21.75;;;15.13;;
35522;SDS011;61478;50.820;4.330;2023-02-22T09:16:06;23.02;;;15.30;;
35522;SDS011;61478;50.820;4.330;2023-02-22T09:18:32;23.45;;;14.98;;
35522;SDS011;61478;50.820;4.330;2023-02-22T09:20:58;22.10;;;14.82;;
35522;SDS011;61478;50.820;4.330;2023-02-22T09:23:24;24.90;;;15.88;;
35522;SDS011;61478;50.820;4.330;2023-02-22T09:25:51;25.40;;;15.40;;
35522;SDS011;61478;50.820;4.330;2023-02-22T09:28:17;20.50;;;15.07;;
35522;SDS011;61478;50.820;4.330;2023-02-22T09:30:43;25.80;;;15.68;;
35522;SDS011;61478;50.820;4.330;2023-02-22T09:33:14;23.17;;;15.00;;
35522;SDS011;61478;50.820;4.330;2023-02-22T09:35:42;26.55;;;15.73;;
35522;SDS011;61478;50.820;4.330;2023-02-22T09:38:16;25.40;;;15.38;;
35522;SDS011;61478;50.820;4.330;2023-02-22T09:40:57;25.48;;;15.88;;
35522;SDS011;61478;50.820;4.330;2023-02-22T09:49:01;25.50;;;17.20;;
35522;SDS011;61478;50.820;4.330;2023-02-22T09:51:47;31.33;;;17.35;;
35522;SDS011;61478;50.820;4.330;2023-02-22T09:56:59;24.42;;;17.08;;
35522;SDS011;61478;50.820;4.330;2023-02-22T09:59:32;24.83;;;17.98;;
35522;SDS011;61478;50.820;4.330;2023-02-22T10:02:15;26.27;;;17.85;;
35522;SDS011;61478;50.820;4.330;2023-02-22T10:04:46;29.85;;;18.25;;
35522;SDS011;61478;50.820;4.330;2023-02-22T10:10:34;27.92;;;18.40;;
35522;SDS011;61478;50.820;4.330;2023-02-22T10:21:34;29.98;;;19.48;;
35522;SDS011;61478;50.820;4.330;2023-02-22T10:24:19;31.17;;;19.15;;
35522;SDS011;61478;50.820;4.330;2023-02-22T10:27:02;29.00;;;17.63;;
35522;SDS011;61478;50.820;4.330;2023-02-22T10:29:42;27.80;;;19.00;;
35522;SDS011;61478;50.820;4.330;2023-02-22T10:32:14;27.48;;;19.10;;
35522;SDS011;61478;50.820;4.330;2023-02-22T10:34:50;26.90;;;18.30;;
35522;SDS011;61478;50.820;4.330;2023-02-22T10:40:01;37.30;;;19.35;;
35522;SDS011;61478;50.820;4.330;2023-02-22T10:42:36;31.20;;;20.88;;
35522;SDS011;61478;50.820;4.330;2023-02-22T10:45:03;34.35;;;21.38;;
35522;SDS011;61478;50.820;4.330;2023-02-22T10:47:30;29.92;;;20.88;;
35522;SDS011;61478;50.820;4.330;2023-02-22T10:49:58;34.97;;;21.45;;
35522;SDS011;61478;50.820;4.330;2023-02-22T10:52:30;29.17;;;21.08;;
35522;SDS011;61478;50.820;4.330;2023-02-22T10:54:59;30.60;;;21.13;;
35522;SDS011;61478;50.820;4.330;2023-02-22T10:57:28;35.53;;;20.88;;
35522;SDS011;61478;50.820;4.330;2023-02-22T10:59:56;41.38;;;22.80;;
35522;SDS011;61478;50.820;4.330;2023-02-22T11:02:28;33.72;;;21.58;;
35522;SDS011;61478;50.820;4.330;2023-02-22T11:04:58;39.97;;;22.15;;
35522;SDS011;61478;50.820;4.330;2023-02-22T11:07:30;35.53;;;22.05;;
35522;SDS011;61478;50.820;4.330;2023-02-22T11:09:58;29.95;;;21.27;;
35522;SDS011;61478;50.820;4.330;2023-02-22T11:12:29;33.28;;;21.33;;
35522;SDS011;61478;50.820;4.330;2023-02-22T11:15:17;32.03;;;23.77;;
35522;SDS011;61478;50.820;4.330;2023-02-22T11:17:51;35.47;;;21.45;;
35522;SDS011;61478;50.820;4.330;2023-02-22T11:20:23;35.17;;;21.85;;
35522;SDS011;61478;50.820;4.330;2023-02-22T11:22:55;32.58;;;23.58;;
35522;SDS011;61478;50.820;4.330;2023-02-22T11:25:26;31.35;;;23.58;;
35522;SDS011;61478;50.820;4.330;2023-02-22T11:27:55;41.13;;;22.42;;
35522;SDS011;61478;50.820;4.330;2023-02-22T11:30:32;39.53;;;22.33;;
35522;SDS011;61478;50.820;4.330;2023-02-22T11:33:15;35.60;;;23.05;;
35522;SDS011;61478;50.820;4.330;2023-02-22T11:35:54;29.27;;;22.73;;
35522;SDS011;61478;50.820;4.330;2023-02-22T11:41:06;36.80;;;23.73;;
35522;SDS011;61478;50.820;4.330;2023-02-22T11:43:35;34.03;;;24.48;;
35522;SDS011;61478;50.820;4.330;2023-02-22T11:46:05;39.38;;;24.35;;
35522;SDS011;61478;50.820;4.330;2023-02-22T11:48:38;44.40;;;27.70;;
35522;SDS011;61478;50.820;4.330;2023-02-22T11:51:16;35.38;;;23.90;;
35522;SDS011;61478;50.820;4.330;2023-02-22T12:00:03;36.10;;;27.40;;
35522;SDS011;61478;50.820;4.330;2023-02-22T12:21:29;47.03;;;30.13;;
35522;SDS011;61478;50.820;4.330;2023-02-22T12:27:17;37.80;;;29.73;;
35522;SDS011;61478;50.820;4.330;2023-02-22T12:30:33;37.92;;;28.95;;
35522;SDS011;61478;50.820;4.330;2023-02-22T12:32:54;35.88;;;28.00;;
35522;SDS011;61478;50.820;4.330;2023-02-22T12:35:35;40.53;;;29.67;;
35522;SDS011;61478;50.820;4.330;2023-02-22T12:41:04;38.53;;;28.70;;
35522;SDS011;61478;50.820;4.330;2023-02-22T12:43:46;40.13;;;28.92;;
35522;SDS011;61478;50.820;4.330;2023-02-22T12:46:25;39.05;;;28.40;;
35522;SDS011;61478;50.820;4.330;2023-02-22T12:49:13;37.75;;;28.63;;
35522;SDS011;61478;50.820;4.330;2023-02-22T12:57:33;40.05;;;28.60;;
35522;SDS011;61478;50.820;4.330;2023-02-22T13:05:39;40.78;;;27.27;;
35522;SDS011;61478;50.820;4.330;2023-02-22T13:08:16;48.90;;;31.27;;
35522;SDS011;61478;50.820;4.330;2023-02-22T13:22:18;44.13;;;32.03;;
35522;SDS011;61478;50.820;4.330;2023-02-22T13:27:48;43.17;;;32.20;;
35522;SDS011;61478;50.820;4.330;2023-02-22T13:30:43;46.30;;;32.15;;
35522;SDS011;61478;50.820;4.330;2023-02-22T13:36:25;38.92;;;31.10;;
35522;SDS011;61478;50.820;4.330;2023-02-22T13:41:59;49.85;;;33.50;;
35522;SDS011;61478;50.820;4.330;2023-02-22T13:53:38;46.83;;;36.25;;
35522;SDS011;61478;50.820;4.330;2023-02-22T13:56:12;44.45;;;34.63;;
35522;SDS011;61478;50.820;4.330;2023-02-22T13:58:52;51.35;;;38.17;;
35522;SDS011;61478;50.820;4.330;2023-02-22T14:04:21;46.97;;;36.60;;
35522;SDS011;61478;50.820;4.330;2023-02-22T14:06:53;46.38;;;36.90;;
35522;SDS011;61478;50.820;4.330;2023-02-22T14:15:11;45.42;;;37.05;;
35522;SDS011;61478;50.820;4.330;2023-02-22T14:17:45;55.08;;;41.60;;
35522;SDS011;61478;50.820;4.330;2023-02-22T14:22:43;58.15;;;45.42;;
35522;SDS011;61478;50.820;4.330;2023-02-22T14:27:57;59.65;;;43.95;;
35522;SDS011;61478;50.820;4.330;2023-02-22T14:30:24;64.07;;;43.88;;
35522;SDS011;61478;50.820;4.330;2023-02-22T14:32:56;54.55;;;41.85;;
35522;SDS011;61478;50.820;4.330;2023-02-22T14:35:22;57.85;;;43.75;;
35522;SDS011;61478;50.820;4.330;2023-02-22T14:37:51;60.08;;;43.38;;
35522;SDS011;61478;50.820;4.330;2023-02-22T14:40:29;61.17;;;44.88;;
35522;SDS011;61478;50.820;4.330;2023-02-22T14:43:02;61.20;;;44.53;;
35522;SDS011;61478;50.820;4.330;2023-02-22T14:45:35;69.65;;;46.08;;
35522;SDS011;61478;50.820;4.330;2023-02-22T14:51:14;64.03;;;45.03;;
35522;SDS011;61478;50.820;4.330;2023-02-22T14:53:45;61.83;;;45.42;;
35522;SDS011;61478;50.820;4.330;2023-02-22T14:56:41;64.25;;;45.70;;
35522;SDS011;61478;50.820;4.330;2023-02-22T14:59:20;68.85;;;44.35;;
35522;SDS011;61478;50.820;4.330;2023-02-22T15:01:49;59.47;;;44.80;;
35522;SDS011;61478;50.820;4.330;2023-02-22T15:04:28;62.28;;;45.75;;
35522;SDS011;61478;50.820;4.330;2023-02-22T15:06:56;62.30;;;44.10;;
35522;SDS011;61478;50.820;4.330;2023-02-22T15:09:26;62.08;;;44.38;;
35522;SDS011;61478;50.820;4.330;2023-02-22T15:17:00;61.97;;;45.90;;
35522;SDS011;61478;50.820;4.330;2023-02-22T15:19:32;55.67;;;43.72;;
35522;SDS011;61478;50.820;4.330;2023-02-22T15:22:02;60.05;;;43.33;;
35522;SDS011;61478;50.820;4.330;2023-02-22T15:24:31;66.88;;;43.83;;
35522;SDS011;61478;50.820;4.330;2023-02-22T15:27:02;63.45;;;44.97;;
35522;SDS011;61478;50.820;4.330;2023-02-22T15:29:37;71.40;;;45.53;;
35522;SDS011;61478;50.820;4.330;2023-02-22T15:35:04;85.97;;;48.33;;
35522;SDS011;61478;50.820;4.330;2023-02-22T15:37:44;67.38;;;45.80;;
35522;SDS011;61478;50.820;4.330;2023-02-22T15:40:16;70.85;;;47.38;;
35522;SDS011;61478;50.820;4.330;2023-02-22T15:42:44;74.07;;;49.03;;
35522;SDS011;61478;50.820;4.330;2023-02-22T15:45:13;85.05;;;47.53;;
35522;SDS011;61478;50.820;4.330;2023-02-22T15:47:41;70.85;;;45.10;;
35522;SDS011;61478;50.820;4.330;2023-02-22T15:55:56;76.45;;;45.63;;
35522;SDS011;61478;50.820;4.330;2023-02-22T15:58:24;75.47;;;46.88;;
35522;SDS011;61478;50.820;4.330;2023-02-22T16:01:04;66.60;;;42.13;;
35522;SDS011;61478;50.820;4.330;2023-02-22T16:03:33;73.75;;;46.45;;
35522;SDS011;61478;50.820;4.330;2023-02-22T16:06:10;68.72;;;45.65;;
35522;SDS011;61478;50.820;4.330;2023-02-22T16:08:40;70.35;;;46.33;;
35522;SDS011;61478;50.820;4.330;2023-02-22T16:11:19;73.25;;;46.50;;
35522;SDS011;61478;50.820;4.330;2023-02-22T16:14:14;74.18;;;45.85;;
35522;SDS011;61478;50.820;4.330;2023-02-22T16:17:22;77.07;;;47.83;;
35522;SDS011;61478;50.820;4.330;2023-02-22T16:19:55;72.85;;;47.00;;
35522;SDS011;61478;50.820;4.330;2023-02-22T16:22:34;76.50;;;48.63;;
35522;SDS011;61478;50.820;4.330;2023-02-22T16:28:00;77.05;;;48.88;;
35522;SDS011;61478;50.820;4.330;2023-02-22T16:30:37;76.88;;;49.95;;
35522;SDS011;61478;50.820;4.330;2023-02-22T16:33:04;78.60;;;50.77;;
35522;SDS011;61478;50.820;4.330;2023-02-22T16:35:37;78.43;;;51.53;;
35522;SDS011;61478;50.820;4.330;2023-02-22T16:38:04;83.15;;;51.88;;
35522;SDS011;61478;50.820;4.330;2023-02-22T16:40:37;79.45;;;49.45;;
35522;SDS011;61478;50.820;4.330;2023-02-22T16:43:11;79.85;;;49.78;;
35522;SDS011;61478;50.820;4.330;2023-02-22T16:45:39;80.53;;;48.95;;
35522;SDS011;61478;50.820;4.330;2023-02-22T16:48:13;93.28;;;54.10;;
35522;SDS011;61478;50.820;4.330;2023-02-22T16:50:42;82.22;;;50.92;;
35522;SDS011;61478;50.820;4.330;2023-02-22T16:53:09;80.25;;;49.58;;
35522;SDS011;61478;50.820;4.330;2023-02-22T16:55:35;86.15;;;52.28;;
35522;SDS011;61478;50.820;4.330;2023-02-22T16:58:01;85.43;;;51.22;;
35522;SDS011;61478;50.820;4.330;2023-02-22T17:00:28;85.00;;;48.85;;
35522;SDS011;61478;50.820;4.330;2023-02-22T17:03:02;83.50;;;50.72;;
35522;SDS011;61478;50.820;4.330;2023-02-22T17:05:30;81.82;;;50.83;;
35522;SDS011;61478;50.820;4.330;2023-02-22T17:08:00;80.53;;;49.85;;
35522;SDS011;61478;50.820;4.330;2023-02-22T17:10:27;89.78;;;52.85;;
35522;SDS011;61478;50.820;4.330;2023-02-22T17:12:53;84.00;;;51.40;;
35522;SDS011;61478;50.820;4.330;2023-02-22T17:15:22;80.38;;;48.85;;
35522;SDS011;61478;50.820;4.330;2023-02-22T17:17:56;83.68;;;50.70;;
35522;SDS011;61478;50.820;4.330;2023-02-22T17:20:23;87.88;;;50.75;;
35522;SDS011;61478;50.820;4.330;2023-02-22T17:23:00;82.18;;;52.92;;
35522;SDS011;61478;50.820;4.330;2023-02-22T17:25:30;85.05;;;51.13;;